sensor_id;sensor_type;location;lat;lon;timestamp;P1;durP1;ratioP1;P2;durP2;ratioP2
69323;SDS011;56470;47.350;8.718;2023-05-24T00:02:57;8.60;;;4.93;;
69323;SDS011;56470;47.350;8.718;2023-05-24T00:15:40;10.48;;;5.53;;
69323;SDS011;56470;47.350;8.718;2023-05-24T00:18:43;9.00;;;4.30;;
69323;SDS011;56470;47.350;8.718;2023-05-24T00:21:42;9.03;;;5.27;;
69323;SDS011;56470;47.350;8.718;2023-05-24T00:24:19;9.52;;;5.10;;
69323;SDS011;56470;47.350;8.718;2023-05-24T00:30:02;8.70;;;5.38;;
69323;SDS011;56470;47.350;8.718;2023-05-24T00:35:46;9.30;;;5.27;;
69323;SDS011;56470;47.350;8.718;2023-05-24T00:38:22;9.65;;;5.57;;
69323;SDS011;56470;47.350;8.718;2023-05-24T00:40:59;9.95;;;5.50;;
69323;SDS011;56470;47.350;8.718;2023-05-24T00:43:49;9.55;;;5.72;;
69323;SDS011;56470;47.350;8.718;2023-05-24T00:46:29;9.80;;;5.03;;
69323;SDS011;56470;47.350;8.718;2023-05-24T00:48:59;8.77;;;5.53;;
69323;SDS011;56470;47.350;8.718;2023-05-24T00:52:18;10.20;;;5.93;;
69323;SDS011;56470;47.350;8.718;2023-05-24T00:55:16;10.00;;;5.45;;
69323;SDS011;56470;47.350;8.718;2023-05-24T00:58:47;9.18;;;5.28;;
69323;SDS011;56470;47.350;8.718;2023-05-24T01:04:45;9.93;;;5.77;;
69323;SDS011;56470;47.350;8.718;2023-05-24T01:20:05;9.33;;;5.37;;
69323;SDS011;56470;47.350;8.718;2023-05-24T01:29:50;8.65;;;5.32;;
69323;SDS011;56470;47.350;8.718;2023-05-24T01:32:26;8.75;;;5.07;;
69323;SDS011;56470;47.350;8.718;2023-05-24T01:35:14;9.87;;;6.07;;
69323;SDS011;56470;47.350;8.718;2023-05-24T01:38:17;8.73;;;4.90;;
69323;SDS011;56470;47.350;8.718;2023-05-24T01:47:19;8.57;;;4.75;;
69323;SDS011;56470;47.350;8.718;2023-05-24T01:53:02;9.75;;;5.28;;
69323;SDS011;56470;47.350;8.718;2023-05-24T01:55:39;9.55;;;5.13;;
69323;SDS011;56470;47.350;8.718;2023-05-24T01:58:51;10.43;;;6.03;;
69323;SDS011;56470;47.350;8.718;2023-05-24T02:01:39;9.65;;;5.78;;
69323;SDS011;56470;47.350;8.718;2023-05-24T02:04:07;9.83;;;5.20;;
69323;SDS011;56470;47.350;8.718;2023-05-24T02:07:23;10.32;;;5.60;;
69323;SDS011;56470;47.350;8.718;2023-05-24T02:10:16;9.52;;;5.28;;
69323;SDS011;56470;47.350;8.718;2023-05-24T02:17:11;8.52;;;4.88;;
69323;SDS011;56470;47.350;8.718;2023-05-24T02:19:49;9.77;;;5.97;;
69323;SDS011;56470;47.350;8.718;2023-05-24T02:23:28;9.88;;;6.03;;
69323;SDS011;56470;47.350;8.718;2023-05-24T02:26:12;8.68;;;5.18;;
69323;SDS011;56470;47.350;8.718;2023-05-24T02:32:05;11.30;;;5.78;;
69323;SDS011;56470;47.350;8.718;2023-05-24T02:37:50;11.27;;;5.97;;
69323;SDS011;56470;47.350;8.718;2023-05-24T02:43:55;11.07;;;5.90;;
69323;SDS011;56470;47.350;8.718;2023-05-24T02:49:50;10.95;;;6.30;;
69323;SDS011;56470;47.350;8.718;2023-05-24T02:56:24;9.65;;;5.22;;
69323;SDS011;56470;47.350;8.718;2023-05-24T03:06:15;9.02;;;5.22;;
69323;SDS011;56470;47.350;8.718;2023-05-24T03:22:49;10.05;;;5.47;;
69323;SDS011;56470;47.350;8.718;2023-05-24T03:25:47;12.05;;;5.63;;
69323;SDS011;56470;47.350;8.718;2023-05-24T03:43:12;9.25;;;5.22;;
69323;SDS011;56470;47.350;8.718;2023-05-24T03:45:37;9.37;;;4.93;;
69323;SDS011;56470;47.350;8.718;2023-05-24T03:48:03;13.93;;;5.87;;
69323;SDS011;56470;47.350;8.718;2023-05-24T03:50:28;9.47;;;5.27;;
69323;SDS011;56470;47.350;8.718;2023-05-24T03:52:53;10.65;;;5.22;;
69323;SDS011;56470;47.350;8.718;2023-05-24T03:55:19;9.10;;;5.63;;
69323;SDS011;56470;47.350;8.718;2023-05-24T03:57:44;11.77;;;5.67;;
69323;SDS011;56470;47.350;8.718;2023-05-24T04:00:10;10.00;;;5.13;;
69323;SDS011;56470;47.350;8.718;2023-05-24T04:02:36;9.60;;;5.20;;
69323;SDS011;56470;47.350;8.718;2023-05-24T04:05:02;8.52;;;4.95;;
69323;SDS011;56470;47.350;8.718;2023-05-24T04:07:28;9.90;;;6.20;;
69323;SDS011;56470;47.350;8.718;2023-05-24T04:09:57;10.23;;;5.68;;
69323;SDS011;56470;47.350;8.718;2023-05-24T04:12:23;10.25;;;5.90;;
69323;SDS011;56470;47.350;8.718;2023-05-24T04:14:48;9.93;;;5.70;;
69323;SDS011;56470;47.350;8.718;2023-05-24T04:17:31;9.97;;;5.73;;
69323;SDS011;56470;47.350;8.718;2023-05-24T04:20:13;9.48;;;5.43;;
69323;SDS011;56470;47.350;8.718;2023-05-24T04:22:44;11.00;;;5.20;;
69323;SDS011;56470;47.350;8.718;2023-05-24T04:25:14;9.80;;;5.30;;
69323;SDS011;56470;47.350;8.718;2023-05-24T04:27:45;11.07;;;6.30;;
69323;SDS011;56470;47.350;8.718;2023-05-24T04:30:14;11.20;;;5.97;;
69323;SDS011;56470;47.350;8.718;2023-05-24T04:32:40;10.77;;;5.40;;
69323;SDS011;56470;47.350;8.718;2023-05-24T04:35:08;8.60;;;5.05;;
69323;SDS011;56470;47.350;8.718;2023-05-24T04:37:34;10.70;;;5.72;;
69323;SDS011;56470;47.350;8.718;2023-05-24T04:39:59;10.47;;;5.50;;
69323;SDS011;56470;47.350;8.718;2023-05-24T04:42:27;8.97;;;5.40;;
69323;SDS011;56470;47.350;8.718;2023-05-24T04:44:56;10.50;;;5.10;;
69323;SDS011;56470;47.350;8.718;2023-05-24T04:47:22;8.85;;;4.88;;
69323;SDS011;56470;47.350;8.718;2023-05-24T04:49:47;8.03;;;4.63;;
69323;SDS011;56470;47.350;8.718;2023-05-24T04:52:13;8.43;;;4.88;;
69323;SDS011;56470;47.350;8.718;2023-05-24T04:54:44;8.50;;;4.93;;
69323;SDS011;56470;47.350;8.718;2023-05-24T04:57:09;7.57;;;4.57;;
69323;SDS011;56470;47.350;8.718;2023-05-24T04:59:35;9.70;;;5.07;;
69323;SDS011;56470;47.350;8.718;2023-05-24T05:02:00;7.95;;;4.60;;
69323;SDS011;56470;47.350;8.718;2023-05-24T05:04:26;8.73;;;5.10;;
69323;SDS011;56470;47.350;8.718;2023-05-24T05:06:51;7.43;;;4.40;;
69323;SDS011;56470;47.350;8.718;2023-05-24T05:09:17;8.48;;;5.25;;
69323;SDS011;56470;47.350;8.718;2023-05-24T05:11:44;9.47;;;5.00;;
69323;SDS011;56470;47.350;8.718;2023-05-24T05:14:10;8.25;;;4.97;;
69323;SDS011;56470;47.350;8.718;2023-05-24T05:16:38;8.63;;;5.15;;
69323;SDS011;56470;47.350;8.718;2023-05-24T05:19:05;9.68;;;5.28;;
69323;SDS011;56470;47.350;8.718;2023-05-24T05:21:30;8.53;;;4.80;;
69323;SDS011;56470;47.350;8.718;2023-05-24T05:24:00;8.70;;;4.95;;
69323;SDS011;56470;47.350;8.718;2023-05-24T05:26:26;8.23;;;4.27;;
69323;SDS011;56470;47.350;8.718;2023-05-24T05:28:52;7.75;;;3.85;;
69323;SDS011;56470;47.350;8.718;2023-05-24T05:31:18;7.38;;;3.95;;
69323;SDS011;56470;47.350;8.718;2023-05-24T05:36:48;5.40;;;2.53;;
69323;SDS011;56470;47.350;8.718;2023-05-24T05:39:13;5.05;;;2.47;;
69323;SDS011;56470;47.350;8.718;2023-05-24T05:41:40;4.63;;;2.30;;
69323;SDS011;56470;47.350;8.718;2023-05-24T05:44:08;5.10;;;2.30;;
69323;SDS011;56470;47.350;8.718;2023-05-24T05:46:34;4.60;;;2.95;;
69323;SDS011;56470;47.350;8.718;2023-05-24T05:49:01;5.68;;;3.20;;
69323;SDS011;56470;47.350;8.718;2023-05-24T05:51:27;5.97;;;2.77;;
69323;SDS011;56470;47.350;8.718;2023-05-24T05:53:55;3.67;;;2.15;;
69323;SDS011;56470;47.350;8.718;2023-05-24T05:56:24;4.63;;;2.57;;
69323;SDS011;56470;47.350;8.718;2023-05-24T05:58:49;5.25;;;3.33;;
69323;SDS011;56470;47.350;8.718;2023-05-24T06:01:15;5.60;;;2.90;;
69323;SDS011;56470;47.350;8.718;2023-05-24T06:03:40;5.07;;;3.05;;
69323;SDS011;56470;47.350;8.718;2023-05-24T06:06:06;6.40;;;2.93;;
69323;SDS011;56470;47.350;8.718;2023-05-24T06:08:33;4.93;;;3.08;;
69323;SDS011;56470;47.350;8.718;2023-05-24T06:10:59;5.13;;;3.00;;
69323;SDS011;56470;47.350;8.718;2023-05-24T06:13:25;6.53;;;3.40;;
69323;SDS011;56470;47.350;8.718;2023-05-24T06:15:52;6.32;;;3.33;;
69323;SDS011;56470;47.350;8.718;2023-05-24T06:18:22;6.13;;;3.45;;
69323;SDS011;56470;47.350;8.718;2023-05-24T06:20:49;5.97;;;3.28;;
69323;SDS011;56470;47.350;8.718;2023-05-24T06:23:15;5.43;;;2.93;;
69323;SDS011;56470;47.350;8.718;2023-05-24T06:25:40;6.35;;;3.72;;
69323;SDS011;56470;47.350;8.718;2023-05-24T06:28:07;5.90;;;3.07;;
69323;SDS011;56470;47.350;8.718;2023-05-24T06:30:33;7.38;;;3.35;;
69323;SDS011;56470;47.350;8.718;2023-05-24T06:32:58;6.37;;;3.37;;
69323;SDS011;56470;47.350;8.718;2023-05-24T06:35:24;7.35;;;2.78;;
69323;SDS011;56470;47.350;8.718;2023-05-24T06:37:50;6.20;;;3.10;;
69323;SDS011;56470;47.350;8.718;2023-05-24T06:40:26;6.90;;;3.92;;
69323;SDS011;56470;47.350;8.718;2023-05-24T06:42:54;7.70;;;4.10;;
69323;SDS011;56470;47.350;8.718;2023-05-24T06:45:22;5.35;;;3.17;;
69323;SDS011;56470;47.350;8.718;2023-05-24T06:47:48;6.33;;;3.43;;
69323;SDS011;56470;47.350;8.718;2023-05-24T06:50:16;7.03;;;3.35;;
69323;SDS011;56470;47.350;8.718;2023-05-24T06:52:52;5.05;;;3.15;;
69323;SDS011;56470;47.350;8.718;2023-05-24T06:55:18;5.97;;;3.43;;
69323;SDS011;56470;47.350;8.718;2023-05-24T06:57:44;5.07;;;2.80;;
69323;SDS011;56470;47.350;8.718;2023-05-24T07:00:12;6.87;;;3.57;;
69323;SDS011;56470;47.350;8.718;2023-05-24T07:03:01;5.78;;;3.05;;
69323;SDS011;56470;47.350;8.718;2023-05-24T07:05:30;4.97;;;2.65;;
69323;SDS011;56470;47.350;8.718;2023-05-24T07:07:55;5.38;;;2.65;;
69323;SDS011;56470;47.350;8.718;2023-05-24T07:10:20;5.83;;;2.97;;
69323;SDS011;56470;47.350;8.718;2023-05-24T07:12:46;4.97;;;2.72;;
69323;SDS011;56470;47.350;8.718;2023-05-24T07:15:12;4.63;;;2.87;;
69323;SDS011;56470;47.350;8.718;2023-05-24T07:17:37;6.77;;;3.23;;
69323;SDS011;56470;47.350;8.718;2023-05-24T07:20:03;5.43;;;2.92;;
69323;SDS011;56470;47.350;8.718;2023-05-24T07:22:34;5.90;;;2.97;;
69323;SDS011;56470;47.350;8.718;2023-05-24T07:24:59;7.35;;;2.53;;
69323;SDS011;56470;47.350;8.718;2023-05-24T07:27:24;5.93;;;3.03;;
69323;SDS011;56470;47.350;8.718;2023-05-24T07:29:50;5.53;;;3.20;;
69323;SDS011;56470;47.350;8.718;2023-05-24T07:32:15;5.83;;;3.37;;
69323;SDS011;56470;47.350;8.718;2023-05-24T07:34:40;5.67;;;3.00;;
69323;SDS011;56470;47.350;8.718;2023-05-24T07:37:07;5.75;;;2.90;;
69323;SDS011;56470;47.350;8.718;2023-05-24T07:39:32;6.50;;;3.73;;
69323;SDS011;56470;47.350;8.718;2023-05-24T07:41:58;6.35;;;3.38;;
69323;SDS011;56470;47.350;8.718;2023-05-24T07:44:23;6.40;;;3.53;;
69323;SDS011;56470;47.350;8.718;2023-05-24T07:46:48;6.60;;;3.40;;
69323;SDS011;56470;47.350;8.718;2023-05-24T07:49:14;6.28;;;3.17;;
69323;SDS011;56470;47.350;8.718;2023-05-24T07:51:40;5.20;;;2.87;;
69323;SDS011;56470;47.350;8.718;2023-05-24T07:54:05;5.57;;;3.47;;
69323;SDS011;56470;47.350;8.718;2023-05-24T07:56:31;6.07;;;3.30;;
69323;SDS011;56470;47.350;8.718;2023-05-24T07:58:56;6.10;;;3.03;;
69323;SDS011;56470;47.350;8.718;2023-05-24T08:01:29;5.18;;;3.17;;
69323;SDS011;56470;47.350;8.718;2023-05-24T08:03:55;6.53;;;3.10;;
69323;SDS011;56470;47.350;8.718;2023-05-24T08:06:21;4.40;;;2.63;;
69323;SDS011;56470;47.350;8.718;2023-05-24T08:08:48;6.57;;;3.53;;
69323;SDS011;56470;47.350;8.718;2023-05-24T08:11:13;6.27;;;3.87;;
69323;SDS011;56470;47.350;8.718;2023-05-24T08:13:38;6.43;;;3.07;;
69323;SDS011;56470;47.350;8.718;2023-05-24T08:16:04;5.53;;;2.93;;
69323;SDS011;56470;47.350;8.718;2023-05-24T08:18:29;5.70;;;3.37;;
69323;SDS011;56470;47.350;8.718;2023-05-24T08:20:55;4.47;;;2.35;;
69323;SDS011;56470;47.350;8.718;2023-05-24T08:23:20;5.83;;;2.97;;
69323;SDS011;56470;47.350;8.718;2023-05-24T08:25:45;5.70;;;3.20;;
69323;SDS011;56470;47.350;8.718;2023-05-24T08:28:11;6.10;;;3.10;;
69323;SDS011;56470;47.350;8.718;2023-05-24T08:30:36;7.03;;;4.43;;
69323;SDS011;56470;47.350;8.718;2023-05-24T08:33:02;6.80;;;3.40;;
69323;SDS011;56470;47.350;8.718;2023-05-24T08:35:27;6.13;;;3.37;;
69323;SDS011;56470;47.350;8.718;2023-05-24T08:37:55;5.97;;;3.28;;
69323;SDS011;56470;47.350;8.718;2023-05-24T08:40:21;5.77;;;3.30;;
69323;SDS011;56470;47.350;8.718;2023-05-24T08:42:48;6.43;;;2.88;;
69323;SDS011;56470;47.350;8.718;2023-05-24T08:45:14;4.33;;;2.37;;
69323;SDS011;56470;47.350;8.718;2023-05-24T08:47:39;5.60;;;3.28;;
69323;SDS011;56470;47.350;8.718;2023-05-24T08:50:06;3.33;;;1.98;;
69323;SDS011;56470;47.350;8.718;2023-05-24T08:52:32;6.17;;;3.07;;
69323;SDS011;56470;47.350;8.718;2023-05-24T08:54:58;6.00;;;3.13;;
69323;SDS011;56470;47.350;8.718;2023-05-24T08:57:27;6.38;;;3.80;;
69323;SDS011;56470;47.350;8.718;2023-05-24T08:59:54;7.15;;;3.22;;
69323;SDS011;56470;47.350;8.718;2023-05-24T09:02:20;5.63;;;2.97;;
69323;SDS011;56470;47.350;8.718;2023-05-24T09:04:47;5.35;;;2.75;;
69323;SDS011;56470;47.350;8.718;2023-05-24T09:07:16;5.97;;;3.17;;
69323;SDS011;56470;47.350;8.718;2023-05-24T09:09:48;6.20;;;3.30;;
69323;SDS011;56470;47.350;8.718;2023-05-24T09:12:31;6.73;;;3.00;;
69323;SDS011;56470;47.350;8.718;2023-05-24T09:14:58;8.15;;;4.22;;
69323;SDS011;56470;47.350;8.718;2023-05-24T09:17:23;6.10;;;3.22;;
69323;SDS011;56470;47.350;8.718;2023-05-24T09:19:50;6.72;;;3.35;;
69323;SDS011;56470;47.350;8.718;2023-05-24T09:22:17;5.90;;;3.20;;
69323;SDS011;56470;47.350;8.718;2023-05-24T09:24:47;6.65;;;3.78;;
69323;SDS011;56470;47.350;8.718;2023-05-24T09:27:20;7.43;;;4.05;;
69323;SDS011;56470;47.350;8.718;2023-05-24T09:29:46;7.22;;;2.97;;
69323;SDS011;56470;47.350;8.718;2023-05-24T09:32:17;5.75;;;3.47;;
69323;SDS011;56470;47.350;8.718;2023-05-24T09:34:45;6.13;;;3.10;;
69323;SDS011;56470;47.350;8.718;2023-05-24T09:37:13;7.38;;;3.30;;
69323;SDS011;56470;47.350;8.718;2023-05-24T09:39:41;4.68;;;2.85;;
69323;SDS011;56470;47.350;8.718;2023-05-24T09:42:06;7.43;;;3.65;;
69323;SDS011;56470;47.350;8.718;2023-05-24T09:44:32;6.53;;;2.90;;
69323;SDS011;56470;47.350;8.718;2023-05-24T09:47:03;7.60;;;4.07;;
69323;SDS011;56470;47.350;8.718;2023-05-24T09:49:29;8.80;;;3.90;;
69323;SDS011;56470;47.350;8.718;2023-05-24T09:51:55;5.57;;;3.03;;
69323;SDS011;56470;47.350;8.718;2023-05-24T09:54:20;6.32;;;2.67;;
69323;SDS011;56470;47.350;8.718;2023-05-24T09:56:46;6.77;;;3.50;;
69323;SDS011;56470;47.350;8.718;2023-05-24T09:59:11;5.60;;;3.27;;
69323;SDS011;56470;47.350;8.718;2023-05-24T10:01:38;7.40;;;3.60;;
69323;SDS011;56470;47.350;8.718;2023-05-24T10:04:03;7.80;;;4.13;;
69323;SDS011;56470;47.350;8.718;2023-05-24T10:06:34;7.88;;;4.45;;
69323;SDS011;56470;47.350;8.718;2023-05-24T10:09:04;7.43;;;3.25;;
69323;SDS011;56470;47.350;8.718;2023-05-24T10:11:33;6.38;;;3.47;;
69323;SDS011;56470;47.350;8.718;2023-05-24T10:14:02;6.10;;;3.03;;
69323;SDS011;56470;47.350;8.718;2023-05-24T10:16:31;6.33;;;3.40;;
69323;SDS011;56470;47.350;8.718;2023-05-24T10:18:57;7.13;;;3.42;;
69323;SDS011;56470;47.350;8.718;2023-05-24T10:21:23;7.47;;;3.17;;
69323;SDS011;56470;47.350;8.718;2023-05-24T10:23:50;6.30;;;2.67;;
69323;SDS011;56470;47.350;8.718;2023-05-24T10:26:20;7.80;;;3.80;;
69323;SDS011;56470;47.350;8.718;2023-05-24T10:28:50;5.72;;;3.40;;
69323;SDS011;56470;47.350;8.718;2023-05-24T10:33:49;6.97;;;3.63;;
69323;SDS011;56470;47.350;8.718;2023-05-24T10:36:15;7.05;;;3.40;;
69323;SDS011;56470;47.350;8.718;2023-05-24T10:38:42;7.50;;;3.60;;
69323;SDS011;56470;47.350;8.718;2023-05-24T10:41:10;5.60;;;2.92;;
69323;SDS011;56470;47.350;8.718;2023-05-24T10:43:37;6.90;;;3.38;;
69323;SDS011;56470;47.350;8.718;2023-05-24T10:46:03;5.10;;;2.70;;
69323;SDS011;56470;47.350;8.718;2023-05-24T10:50:54;7.20;;;3.33;;
69323;SDS011;56470;47.350;8.718;2023-05-24T10:53:25;7.45;;;3.38;;
69323;SDS011;56470;47.350;8.718;2023-05-24T11:01:29;9.53;;;3.47;;
69323;SDS011;56470;47.350;8.718;2023-05-24T11:04:07;6.90;;;3.80;;
69323;SDS011;56470;47.350;8.718;2023-05-24T11:06:47;6.55;;;3.42;;
69323;SDS011;56470;47.350;8.718;2023-05-24T11:09:16;8.52;;;3.50;;
69323;SDS011;56470;47.350;8.718;2023-05-24T11:11:44;4.40;;;2.80;;
69323;SDS011;56470;47.350;8.718;2023-05-24T11:14:12;6.50;;;3.60;;
69323;SDS011;56470;47.350;8.718;2023-05-24T11:16:43;8.80;;;4.65;;
69323;SDS011;56470;47.350;8.718;2023-05-24T11:19:32;8.27;;;3.50;;
69323;SDS011;56470;47.350;8.718;2023-05-24T11:22:00;6.13;;;3.42;;
69323;SDS011;56470;47.350;8.718;2023-05-24T11:24:28;6.28;;;3.17;;
69323;SDS011;56470;47.350;8.718;2023-05-24T11:26:54;6.40;;;3.37;;
69323;SDS011;56470;47.350;8.718;2023-05-24T11:29:21;6.68;;;3.00;;
69323;SDS011;56470;47.350;8.718;2023-05-24T11:31:47;5.38;;;2.75;;
69323;SDS011;56470;47.350;8.718;2023-05-24T11:34:16;7.50;;;2.63;;
69323;SDS011;56470;47.350;8.718;2023-05-24T11:36:43;7.83;;;3.10;;
69323;SDS011;56470;47.350;8.718;2023-05-24T11:39:09;6.35;;;3.17;;
69323;SDS011;56470;47.350;8.718;2023-05-24T11:41:37;4.18;;;2.25;;
69323;SDS011;56470;47.350;8.718;2023-05-24T11:44:04;6.50;;;3.43;;
69323;SDS011;56470;47.350;8.718;2023-05-24T11:46:31;6.63;;;3.22;;
69323;SDS011;56470;47.350;8.718;2023-05-24T11:48:57;5.25;;;2.83;;
69323;SDS011;56470;47.350;8.718;2023-05-24T11:51:29;10.00;;;3.80;;
69323;SDS011;56470;47.350;8.718;2023-05-24T11:53:56;7.60;;;3.70;;
69323;SDS011;56470;47.350;8.718;2023-05-24T11:56:22;10.10;;;3.88;;
69323;SDS011;56470;47.350;8.718;2023-05-24T11:59:02;6.72;;;3.42;;
69323;SDS011;56470;47.350;8.718;2023-05-24T12:01:35;8.43;;;4.90;;
69323;SDS011;56470;47.350;8.718;2023-05-24T12:04:01;8.00;;;3.83;;
69323;SDS011;56470;47.350;8.718;2023-05-24T12:06:33;7.63;;;3.55;;
69323;SDS011;56470;47.350;8.718;2023-05-24T12:09:00;7.30;;;3.50;;
69323;SDS011;56470;47.350;8.718;2023-05-24T12:11:25;8.17;;;4.17;;
69323;SDS011;56470;47.350;8.718;2023-05-24T12:13:52;5.30;;;2.97;;
69323;SDS011;56470;47.350;8.718;2023-05-24T12:16:18;8.35;;;4.20;;
69323;SDS011;56470;47.350;8.718;2023-05-24T12:18:43;9.60;;;4.20;;
69323;SDS011;56470;47.350;8.718;2023-05-24T12:21:09;10.03;;;4.40;;
69323;SDS011;56470;47.350;8.718;2023-05-24T12:23:38;9.27;;;4.95;;
69323;SDS011;56470;47.350;8.718;2023-05-24T12:26:06;7.75;;;4.18;;
69323;SDS011;56470;47.350;8.718;2023-05-24T12:28:35;7.80;;;4.00;;
69323;SDS011;56470;47.350;8.718;2023-05-24T12:31:03;8.93;;;4.55;;
69323;SDS011;56470;47.350;8.718;2023-05-24T12:33:29;11.10;;;3.53;;
69323;SDS011;56470;47.350;8.718;2023-05-24T12:35:55;7.63;;;4.15;;
69323;SDS011;56470;47.350;8.718;2023-05-24T12:38:23;10.35;;;4.88;;
69323;SDS011;56470;47.350;8.718;2023-05-24T12:40:51;10.82;;;4.97;;
69323;SDS011;56470;47.350;8.718;2023-05-24T12:43:18;8.77;;;5.20;;
69323;SDS011;56470;47.350;8.718;2023-05-24T12:45:44;7.30;;;2.80;;
69323;SDS011;56470;47.350;8.718;2023-05-24T12:48:09;10.00;;;4.40;;
69323;SDS011;56470;47.350;8.718;2023-05-24T12:50:35;7.50;;;3.45;;
69323;SDS011;56470;47.350;8.718;2023-05-24T12:53:01;7.53;;;4.03;;
69323;SDS011;56470;47.350;8.718;2023-05-24T12:55:26;7.85;;;4.45;;
69323;SDS011;56470;47.350;8.718;2023-05-24T12:57:52;8.70;;;4.30;;
69323;SDS011;56470;47.350;8.718;2023-05-24T13:00:20;9.50;;;5.22;;
69323;SDS011;56470;47.350;8.718;2023-05-24T13:02:48;8.68;;;4.20;;
69323;SDS011;56470;47.350;8.718;2023-05-24T13:05:13;8.90;;;4.30;;
69323;SDS011;56470;47.350;8.718;2023-05-24T13:07:41;5.57;;;3.15;;
69323;SDS011;56470;47.350;8.718;2023-05-24T13:10:07;10.15;;;4.65;;
69323;SDS011;56470;47.350;8.718;2023-05-24T13:12:33;8.57;;;4.07;;
69323;SDS011;56470;47.350;8.718;2023-05-24T13:14:58;7.53;;;3.87;;
69323;SDS011;56470;47.350;8.718;2023-05-24T13:17:24;7.47;;;2.88;;
69323;SDS011;56470;47.350;8.718;2023-05-24T13:19:50;7.90;;;4.67;;
69323;SDS011;56470;47.350;8.718;2023-05-24T13:22:15;7.95;;;4.45;;
69323;SDS011;56470;47.350;8.718;2023-05-24T13:24:41;10.67;;;4.63;;
69323;SDS011;56470;47.350;8.718;2023-05-24T13:27:06;8.32;;;4.22;;
69323;SDS011;56470;47.350;8.718;2023-05-24T13:29:32;6.57;;;3.43;;
69323;SDS011;56470;47.350;8.718;2023-05-24T13:31:58;7.65;;;4.15;;
69323;SDS011;56470;47.350;8.718;2023-05-24T13:34:23;6.10;;;3.80;;
69323;SDS011;56470;47.350;8.718;2023-05-24T13:36:49;10.02;;;4.82;;
69323;SDS011;56470;47.350;8.718;2023-05-24T13:39:16;10.47;;;4.47;;
69323;SDS011;56470;47.350;8.718;2023-05-24T13:41:42;11.57;;;4.70;;
69323;SDS011;56470;47.350;8.718;2023-05-24T13:44:08;8.40;;;4.35;;
69323;SDS011;56470;47.350;8.718;2023-05-24T13:46:33;7.80;;;4.80;;
69323;SDS011;56470;47.350;8.718;2023-05-24T13:49:00;9.80;;;4.70;;
69323;SDS011;56470;47.350;8.718;2023-05-24T13:51:26;8.93;;;4.77;;
69323;SDS011;56470;47.350;8.718;2023-05-24T13:53:51;7.93;;;4.32;;
69323;SDS011;56470;47.350;8.718;2023-05-24T13:56:19;8.73;;;4.10;;
69323;SDS011;56470;47.350;8.718;2023-05-24T13:58:46;11.05;;;5.50;;
69323;SDS011;56470;47.350;8.718;2023-05-24T14:01:11;8.97;;;4.27;;
69323;SDS011;56470;47.350;8.718;2023-05-24T14:03:37;10.13;;;4.80;;
69323;SDS011;56470;47.350;8.718;2023-05-24T14:06:04;13.50;;;5.13;;
69323;SDS011;56470;47.350;8.718;2023-05-24T14:08:31;9.13;;;4.50;;
69323;SDS011;56470;47.350;8.718;2023-05-24T14:10:57;8.77;;;4.90;;
69323;SDS011;56470;47.350;8.718;2023-05-24T14:13:22;10.57;;;4.60;;
69323;SDS011;56470;47.350;8.718;2023-05-24T14:15:47;6.07;;;3.17;;
69323;SDS011;56470;47.350;8.718;2023-05-24T14:18:13;8.68;;;4.82;;
69323;SDS011;56470;47.350;8.718;2023-05-24T14:20:39;7.27;;;4.20;;
69323;SDS011;56470;47.350;8.718;2023-05-24T14:23:08;11.50;;;5.00;;
69323;SDS011;56470;47.350;8.718;2023-05-24T14:25:33;9.87;;;4.63;;
69323;SDS011;56470;47.350;8.718;2023-05-24T14:27:59;12.48;;;5.07;;
69323;SDS011;56470;47.350;8.718;2023-05-24T14:30:25;9.03;;;4.73;;
69323;SDS011;56470;47.350;8.718;2023-05-24T14:32:50;10.57;;;4.00;;
69323;SDS011;56470;47.350;8.718;2023-05-24T14:35:16;9.43;;;4.67;;
69323;SDS011;56470;47.350;8.718;2023-05-24T14:37:41;7.88;;;3.72;;
69323;SDS011;56470;47.350;8.718;2023-05-24T14:40:07;9.47;;;4.53;;
69323;SDS011;56470;47.350;8.718;2023-05-24T14:42:33;10.23;;;4.53;;
69323;SDS011;56470;47.350;8.718;2023-05-24T14:44:58;10.00;;;4.37;;
69323;SDS011;56470;47.350;8.718;2023-05-24T14:47:24;9.23;;;4.93;;
69323;SDS011;56470;47.350;8.718;2023-05-24T14:49:49;9.67;;;4.27;;
69323;SDS011;56470;47.350;8.718;2023-05-24T14:52:15;7.30;;;3.97;;
69323;SDS011;56470;47.350;8.718;2023-05-24T14:54:40;6.50;;;3.50;;
69323;SDS011;56470;47.350;8.718;2023-05-24T14:57:05;10.37;;;5.03;;
69323;SDS011;56470;47.350;8.718;2023-05-24T14:59:34;6.63;;;3.90;;
69323;SDS011;56470;47.350;8.718;2023-05-24T15:01:59;8.70;;;4.43;;
69323;SDS011;56470;47.350;8.718;2023-05-24T15:04:25;10.40;;;5.78;;
69323;SDS011;56470;47.350;8.718;2023-05-24T15:06:51;10.33;;;4.87;;
69323;SDS011;56470;47.350;8.718;2023-05-24T15:09:16;11.73;;;5.30;;
69323;SDS011;56470;47.350;8.718;2023-05-24T15:11:42;6.63;;;3.73;;
69323;SDS011;56470;47.350;8.718;2023-05-24T15:14:07;8.17;;;4.47;;
69323;SDS011;56470;47.350;8.718;2023-05-24T15:16:32;9.83;;;4.67;;
69323;SDS011;56470;47.350;8.718;2023-05-24T15:19:00;10.83;;;4.90;;
69323;SDS011;56470;47.350;8.718;2023-05-24T15:21:26;13.20;;;5.18;;
69323;SDS011;56470;47.350;8.718;2023-05-24T15:23:51;12.48;;;5.57;;
69323;SDS011;56470;47.350;8.718;2023-05-24T15:26:17;11.50;;;5.33;;
69323;SDS011;56470;47.350;8.718;2023-05-24T15:28:42;7.43;;;3.73;;
69323;SDS011;56470;47.350;8.718;2023-05-24T15:31:09;9.48;;;5.90;;
69323;SDS011;56470;47.350;8.718;2023-05-24T15:33:34;12.17;;;5.40;;
69323;SDS011;56470;47.350;8.718;2023-05-24T15:36:01;9.40;;;4.80;;
69323;SDS011;56470;47.350;8.718;2023-05-24T15:38:27;10.45;;;4.63;;
69323;SDS011;56470;47.350;8.718;2023-05-24T15:40:52;12.63;;;6.57;;
69323;SDS011;56470;47.350;8.718;2023-05-24T15:43:18;10.63;;;5.20;;
69323;SDS011;56470;47.350;8.718;2023-05-24T15:45:43;9.97;;;5.10;;
69323;SDS011;56470;47.350;8.718;2023-05-24T15:48:09;8.88;;;4.68;;
69323;SDS011;56470;47.350;8.718;2023-05-24T15:50:35;10.25;;;5.30;;
69323;SDS011;56470;47.350;8.718;2023-05-24T15:53:01;9.77;;;5.23;;
69323;SDS011;56470;47.350;8.718;2023-05-24T15:55:26;9.45;;;5.38;;
69323;SDS011;56470;47.350;8.718;2023-05-24T15:57:52;10.57;;;6.00;;
69323;SDS011;56470;47.350;8.718;2023-05-24T16:00:17;10.00;;;5.50;;
69323;SDS011;56470;47.350;8.718;2023-05-24T16:02:43;13.27;;;5.53;;
69323;SDS011;56470;47.350;8.718;2023-05-24T16:05:08;7.60;;;4.30;;
69323;SDS011;56470;47.350;8.718;2023-05-24T16:07:34;10.43;;;5.10;;
69323;SDS011;56470;47.350;8.718;2023-05-24T16:09:59;5.82;;;2.65;;
69323;SDS011;56470;47.350;8.718;2023-05-24T16:12:24;9.50;;;4.97;;
69323;SDS011;56470;47.350;8.718;2023-05-24T16:14:50;13.03;;;5.33;;
69323;SDS011;56470;47.350;8.718;2023-05-24T16:17:16;12.50;;;5.15;;
69323;SDS011;56470;47.350;8.718;2023-05-24T16:19:41;10.80;;;5.43;;
69323;SDS011;56470;47.350;8.718;2023-05-24T16:22:07;11.77;;;4.70;;
69323;SDS011;56470;47.350;8.718;2023-05-24T16:24:32;9.38;;;4.95;;
69323;SDS011;56470;47.350;8.718;2023-05-24T16:26:57;9.93;;;5.17;;
69323;SDS011;56470;47.350;8.718;2023-05-24T16:29:25;13.33;;;5.30;;
69323;SDS011;56470;47.350;8.718;2023-05-24T16:31:51;11.18;;;5.22;;
69323;SDS011;56470;47.350;8.718;2023-05-24T16:34:16;12.43;;;5.77;;
69323;SDS011;56470;47.350;8.718;2023-05-24T16:36:41;14.20;;;5.63;;
69323;SDS011;56470;47.350;8.718;2023-05-24T16:39:09;10.95;;;6.28;;
69323;SDS011;56470;47.350;8.718;2023-05-24T16:41:37;12.88;;;6.72;;
69323;SDS011;56470;47.350;8.718;2023-05-24T16:44:04;11.38;;;5.53;;
69323;SDS011;56470;47.350;8.718;2023-05-24T16:46:30;12.30;;;5.37;;
69323;SDS011;56470;47.350;8.718;2023-05-24T16:48:56;10.52;;;5.70;;
69323;SDS011;56470;47.350;8.718;2023-05-24T16:51:21;11.47;;;6.20;;
69323;SDS011;56470;47.350;8.718;2023-05-24T16:53:47;10.00;;;5.40;;
69323;SDS011;56470;47.350;8.718;2023-05-24T16:56:12;10.07;;;5.33;;
69323;SDS011;56470;47.350;8.718;2023-05-24T16:58:38;11.23;;;5.27;;